sensor_id;sensor_type;location;lat;lon;timestamp;pressure;altitude;pressure_sealevel;temperature;humidity
23619;BME280;18207;32.078;34.818;2022-09-21T00:00:30;100314.72;;;32.65;40.42
23619;BME280;18207;32.078;34.818;2022-09-21T00:03:01;100314.72;;;32.65;40.66
23619;BME280;18207;32.078;34.818;2022-09-21T00:05:32;100323.25;;;32.65;40.95
23619;BME280;18207;32.078;34.818;2022-09-21T00:08:04;100317.56;;;32.65;40.91
23619;BME280;18207;32.078;34.818;2022-09-21T00:10:36;100310.25;;;32.64;40.27
23619;BME280;18207;32.078;34.818;2022-09-21T00:13:07;100318.78;;;32.64;40.47
23619;BME280;18207;32.078;34.818;2022-09-21T00:15:41;100310.69;;;32.63;40.41
23619;BME280;18207;32.078;34.818;2022-09-21T00:18:12;100305.00;;;32.63;40.93
23619;BME280;18207;32.078;34.818;2022-09-21T00:20:43;100301.31;;;32.62;40.50
23619;BME280;18207;32.078;34.818;2022-09-21T00:23:14;100309.06;;;32.62;40.44
23619;BME280;18207;32.078;34.818;2022-09-21T00:25:46;100302.56;;;32.61;40.70
23619;BME280;18207;32.078;34.818;2022-09-21T00:28:16;100300.94;;;32.60;40.26
23619;BME280;18207;32.078;34.818;2022-09-21T00:30:49;100303.00;;;32.60;40.26
23619;BME280;18207;32.078;34.818;2022-09-21T00:33:20;100298.91;;;32.61;40.73
23619;BME280;18207;32.078;34.818;2022-09-21T00:35:51;100300.94;;;32.60;40.38
23619;BME280;18207;32.078;34.818;2022-09-21T00:38:22;100294.44;;;32.60;40.82
23619;BME280;18207;32.078;34.818;2022-09-21T00:40:53;100297.28;;;32.60;40.71
23619;BME280;18207;32.078;34.818;2022-09-21T00:43:24;100300.94;;;32.60;40.16
23619;BME280;18207;32.078;34.818;2022-09-21T00:46:02;100297.69;;;32.62;40.10
23619;BME280;18207;32.078;34.818;2022-09-21T00:48:33;100294.44;;;32.60;40.08
23619;BME280;18207;32.078;34.818;2022-09-21T00:51:07;100291.59;;;32.60;40.44
23619;BME280;18207;32.078;34.818;2022-09-21T00:53:38;100287.97;;;32.59;40.28
23619;BME280;18207;32.078;34.818;2022-09-21T00:56:11;100294.88;;;32.58;40.53
23619;BME280;18207;32.078;34.818;2022-09-21T00:58:46;100291.19;;;32.58;40.22
23619;BME280;18207;32.078;34.818;2022-09-21T01:01:21;100276.97;;;32.58;40.11
23619;BME280;18207;32.078;34.818;2022-09-21T01:03:54;100284.72;;;32.57;40.55
23619;BME280;18207;32.078;34.818;2022-09-21T01:06:25;100289.22;;;32.55;40.71
23619;BME280;18207;32.078;34.818;2022-09-21T01:08:57;100283.94;;;32.53;40.58
23619;BME280;18207;32.078;34.818;2022-09-21T01:11:41;100293.28;;;32.54;40.64
23619;BME280;18207;32.078;34.818;2022-09-21T01:14:49;100295.38;;;32.50;40.78
23619;BME280;18207;32.078;34.818;2022-09-21T01:17:36;100289.31;;;32.48;40.70
23619;BME280;18207;32.078;34.818;2022-09-21T01:24:19;100291.47;;;32.40;40.83
23619;BME280;18207;32.078;34.818;2022-09-21T01:30:20;100305.72;;;32.37;41.02
23619;BME280;18207;32.078;34.818;2022-09-21T01:32:56;100308.56;;;32.37;40.58
23619;BME280;18207;32.078;34.818;2022-09-21T01:35:38;100309.78;;;32.36;41.01
23619;BME280;18207;32.078;34.818;2022-09-21T01:38:17;100312.28;;;32.34;40.41
23619;BME280;18207;32.078;34.818;2022-09-21T01:40:53;100304.56;;;32.31;40.84
23619;BME280;18207;32.078;34.818;2022-09-21T01:43:32;100312.72;;;32.29;40.83
23619;BME280;18207;32.078;34.818;2022-09-21T01:46:13;100305.84;;;32.26;40.69
23619;BME280;18207;32.078;34.818;2022-09-21T01:48:51;100302.63;;;32.24;40.51
23619;BME280;18207;32.078;34.818;2022-09-21T01:51:28;100304.28;;;32.22;40.62
23619;BME280;18207;32.078;34.818;2022-09-21T01:54:04;100303.13;;;32.20;40.58
23619;BME280;18207;32.078;34.818;2022-09-21T01:56:43;100309.22;;;32.18;40.55
23619;BME280;18207;32.078;34.818;2022-09-21T01:59:25;100304.75;;;32.17;41.17
23619;BME280;18207;32.078;34.818;2022-09-21T02:02:10;100304.38;;;32.15;40.68
23619;BME280;18207;32.078;34.818;2022-09-21T02:04:42;100313.31;;;32.14;40.67
23619;BME280;18207;32.078;34.818;2022-09-21T02:07:12;100305.22;;;32.12;41.02
23619;BME280;18207;32.078;34.818;2022-09-21T02:09:46;100306.47;;;32.11;41.17
23619;BME280;18207;32.078;34.818;2022-09-21T02:12:17;100297.97;;;32.08;41.29
23619;BME280;18207;32.078;34.818;2022-09-21T02:14:49;100299.59;;;32.05;41.41
23619;BME280;18207;32.078;34.818;2022-09-21T02:17:35;100295.97;;;32.01;41.46
23619;BME280;18207;32.078;34.818;2022-09-21T02:20:19;100300.06;;;32.00;40.96
23619;BME280;18207;32.078;34.818;2022-09-21T02:23:04;100296.03;;;31.98;40.87
23619;BME280;18207;32.078;34.818;2022-09-21T02:25:47;100295.66;;;31.96;41.22
23619;BME280;18207;32.078;34.818;2022-09-21T02:28:29;100287.56;;;31.94;41.09
23619;BME280;18207;32.078;34.818;2022-09-21T02:31:13;100295.69;;;31.92;41.13
23619;BME280;18207;32.078;34.818;2022-09-21T02:33:58;100288.38;;;31.91;41.18
23619;BME280;18207;32.078;34.818;2022-09-21T02:36:37;100294.91;;;31.88;40.99
23619;BME280;18207;32.078;34.818;2022-09-21T02:39:18;100296.56;;;31.86;41.38
23619;BME280;18207;32.078;34.818;2022-09-21T02:42:00;100305.94;;;31.86;41.29
23619;BME280;18207;32.078;34.818;2022-09-21T02:44:39;100306.31;;;31.85;41.21
23619;BME280;18207;32.078;34.818;2022-09-21T02:47:17;100302.25;;;31.86;41.64
23619;BME280;18207;32.078;34.818;2022-09-21T02:49:55;100300.63;;;31.85;41.11
23619;BME280;18207;32.078;34.818;2022-09-21T02:52:29;100303.91;;;31.83;41.13
23619;BME280;18207;32.078;34.818;2022-09-21T02:55:03;100305.16;;;31.82;41.41
23619;BME280;18207;32.078;34.818;2022-09-21T02:57:34;100307.59;;;31.80;41.15
23619;BME280;18207;32.078;34.818;2022-09-21T03:00:07;100305.97;;;31.79;41.15
23619;BME280;18207;32.078;34.818;2022-09-21T03:02:40;100303.19;;;31.76;41.57
23619;BME280;18207;32.078;34.818;2022-09-21T03:05:14;100306.03;;;31.76;41.05
23619;BME280;18207;32.078;34.818;2022-09-21T03:07:45;100309.28;;;31.74;41.82
23619;BME280;18207;32.078;34.818;2022-09-21T03:10:16;100300.78;;;31.74;41.64
23619;BME280;18207;32.078;34.818;2022-09-21T03:12:47;100307.69;;;31.73;41.36
23619;BME280;18207;32.078;34.818;2022-09-21T03:15:18;100313.81;;;31.72;41.87
23619;BME280;18207;32.078;34.818;2022-09-21T03:17:49;100308.50;;;31.70;41.74
23619;BME280;18207;32.078;34.818;2022-09-21T03:20:21;100321.94;;;31.70;41.67
23619;BME280;18207;32.078;34.818;2022-09-21T03:22:53;100318.69;;;31.68;41.79
23619;BME280;18207;32.078;34.818;2022-09-21T03:25:26;100313.00;;;31.68;41.90
23619;BME280;18207;32.078;34.818;2022-09-21T03:27:58;100317.09;;;31.67;41.36
23619;BME280;18207;32.078;34.818;2022-09-21T03:30:28;100321.16;;;31.66;41.30
23619;BME280;18207;32.078;34.818;2022-09-21T03:32:58;100322.38;;;31.65;41.68
23619;BME280;18207;32.078;34.818;2022-09-21T03:35:33;100326.03;;;31.65;41.70
23619;BME280;18207;32.078;34.818;2022-09-21T03:38:04;100322.38;;;31.65;41.72
23619;BME280;18207;32.078;34.818;2022-09-21T03:40:35;100319.97;;;31.63;41.46
23619;BME280;18207;32.078;34.818;2022-09-21T03:43:06;100326.88;;;31.62;41.31
23619;BME280;18207;32.078;34.818;2022-09-21T03:45:38;100326.06;;;31.62;41.81
23619;BME280;18207;32.078;34.818;2022-09-21T03:48:11;100330.94;;;31.61;41.81
23619;BME280;18207;32.078;34.818;2022-09-21T03:50:44;100327.69;;;31.59;41.74
23619;BME280;18207;32.078;34.818;2022-09-21T03:53:15;100323.69;;;31.57;41.60
23619;BME280;18207;32.078;34.818;2022-09-21T03:55:45;100332.19;;;31.57;41.92
23619;BME280;18207;32.078;34.818;2022-09-21T03:58:16;100326.94;;;31.55;41.66
23619;BME280;18207;32.078;34.818;2022-09-21T04:00:47;100324.09;;;31.55;42.18
23619;BME280;18207;32.078;34.818;2022-09-21T04:03:17;100326.13;;;31.55;42.18
23619;BME280;18207;32.078;34.818;2022-09-21T04:05:50;100326.94;;;31.55;42.02
23619;BME280;18207;32.078;34.818;2022-09-21T04:08:20;100325.72;;;31.56;42.01
23619;BME280;18207;32.078;34.818;2022-09-21T04:10:52;100328.13;;;31.58;41.73
23619;BME280;18207;32.078;34.818;2022-09-21T04:13:23;100328.53;;;31.60;42.14
23619;BME280;18207;32.078;34.818;2022-09-21T04:15:54;100336.63;;;31.61;41.94
23619;BME280;18207;32.078;34.818;2022-09-21T04:18:25;100337.44;;;31.62;41.86
23619;BME280;18207;32.078;34.818;2022-09-21T04:20:57;100338.25;;;31.62;42.20
23619;BME280;18207;32.078;34.818;2022-09-21T04:23:28;100342.69;;;31.63;42.38
23619;BME280;18207;32.078;34.818;2022-09-21T04:25:59;100343.88;;;31.66;42.38
23619;BME280;18207;32.078;34.818;2022-09-21T04:28:31;100340.63;;;31.67;42.10
23619;BME280;18207;32.078;34.818;2022-09-21T04:31:03;100343.06;;;31.69;42.25
23619;BME280;18207;32.078;34.818;2022-09-21T04:33:33;100345.47;;;31.70;42.06
23619;BME280;18207;32.078;34.818;2022-09-21T04:36:06;100351.16;;;31.70;42.23
23619;BME280;18207;32.078;34.818;2022-09-21T04:38:37;100352.75;;;31.71;42.02
23619;BME280;18207;32.078;34.818;2022-09-21T04:41:08;100346.25;;;31.74;42.02
23619;BME280;18207;32.078;34.818;2022-09-21T04:43:41;100353.91;;;31.77;42.20
23619;BME280;18207;32.078;34.818;2022-09-21T04:46:15;100339.69;;;31.81;41.78
23619;BME280;18207;32.078;34.818;2022-09-21T04:48:47;100346.13;;;31.85;42.15
23619;BME280;18207;32.078;34.818;2022-09-21T04:51:20;100341.63;;;31.91;42.66
23619;BME280;18207;32.078;34.818;2022-09-21T04:53:50;100350.09;;;31.94;42.03
23619;BME280;18207;32.078;34.818;2022-09-21T04:56:21;100343.94;;;31.99;42.52
23619;BME280;18207;32.078;34.818;2022-09-21T04:58:51;100348.78;;;32.02;41.97
23619;BME280;18207;32.078;34.818;2022-09-21T05:01:22;100339.41;;;32.05;41.86
23619;BME280;18207;32.078;34.818;2022-09-21T05:03:53;100343.88;;;32.10;42.37
23619;BME280;18207;32.078;34.818;2022-09-21T05:06:32;100341.38;;;32.15;42.50
23619;BME280;18207;32.078;34.818;2022-09-21T05:09:03;100339.25;;;32.19;42.57
23619;BME280;18207;32.078;34.818;2022-09-21T05:11:50;100343.28;;;32.25;42.18
23619;BME280;18207;32.078;34.818;2022-09-21T05:14:21;100343.97;;;32.32;41.98
23619;BME280;18207;32.078;34.818;2022-09-21T05:16:51;100349.16;;;32.41;42.17
23619;BME280;18207;32.078;34.818;2022-09-21T05:19:22;100345.81;;;32.49;42.18
23619;BME280;18207;32.078;34.818;2022-09-21T05:21:54;100347.31;;;32.57;42.38
23619;BME280;18207;32.078;34.818;2022-09-21T05:24:25;100353.00;;;32.61;42.58
23619;BME280;18207;32.078;34.818;2022-09-21T05:26:56;100357.47;;;32.62;41.98
23619;BME280;18207;32.078;34.818;2022-09-21T05:29:28;100359.88;;;32.63;41.63
23619;BME280;18207;32.078;34.818;2022-09-21T05:32:06;100356.22;;;32.63;42.22
23619;BME280;18207;32.078;34.818;2022-09-21T05:34:52;100360.31;;;32.62;41.64
23619;BME280;18207;32.078;34.818;2022-09-21T05:37:48;100360.72;;;32.60;42.01
23619;BME280;18207;32.078;34.818;2022-09-21T05:40:22;100359.91;;;32.60;41.90
23619;BME280;18207;32.078;34.818;2022-09-21T05:42:54;100367.22;;;32.61;41.95
23619;BME280;18207;32.078;34.818;2022-09-21T05:45:25;100365.59;;;32.60;41.38
23619;BME280;18207;32.078;34.818;2022-09-21T05:48:05;100362.31;;;32.61;41.50
23619;BME280;18207;32.078;34.818;2022-09-21T05:50:57;100364.75;;;32.63;41.94
23619;BME280;18207;32.078;34.818;2022-09-21T05:53:58;100363.88;;;32.66;41.85
23619;BME280;18207;32.078;34.818;2022-09-21T05:56:45;100363.88;;;32.69;41.64
23619;BME280;18207;32.078;34.818;2022-09-21T05:59:42;100377.16;;;32.79;42.27
23619;BME280;18207;32.078;34.818;2022-09-21T06:02:37;100370.53;;;32.86;42.22
23619;BME280;18207;32.078;34.818;2022-09-21T06:05:13;100366.78;;;32.92;42.11
23619;BME280;18207;32.078;34.818;2022-09-21T06:07:44;100377.25;;;32.99;42.07
23619;BME280;18207;32.078;34.818;2022-09-21T06:10:17;100374.28;;;33.06;41.47
23619;BME280;18207;32.078;34.818;2022-09-21T06:12:48;100376.28;;;33.09;41.97
23619;BME280;18207;32.078;34.818;2022-09-21T06:15:20;100374.31;;;33.09;41.96
23619;BME280;18207;32.078;34.818;2022-09-21T06:17:52;100372.63;;;33.12;41.33
23619;BME280;18207;32.078;34.818;2022-09-21T06:20:23;100377.09;;;33.13;41.65
23619;BME280;18207;32.078;34.818;2022-09-21T06:23:00;100371.34;;;33.16;41.12
23619;BME280;18207;32.078;34.818;2022-09-21T06:25:33;100379.00;;;33.19;41.14
23619;BME280;18207;32.078;34.818;2022-09-21T06:28:04;100385.84;;;33.25;41.67
23619;BME280;18207;32.078;34.818;2022-09-21T06:30:36;100388.56;;;33.32;41.64
23619;BME280;18207;32.078;34.818;2022-09-21T06:33:09;100384.38;;;33.40;41.32
23619;BME280;18207;32.078;34.818;2022-09-21T06:35:40;100388.34;;;33.46;41.77
23619;BME280;18207;32.078;34.818;2022-09-21T06:38:11;100391.53;;;33.51;41.80
23619;BME280;18207;32.078;34.818;2022-09-21T06:40:44;100395.94;;;33.56;40.97
23619;BME280;18207;32.078;34.818;2022-09-21T06:43:14;100390.19;;;33.59;41.00
23619;BME280;18207;32.078;34.818;2022-09-21T06:45:52;100398.19;;;33.68;41.50
23619;BME280;18207;32.078;34.818;2022-09-21T06:48:25;100396.47;;;33.74;40.98
23619;BME280;18207;32.078;34.818;2022-09-21T06:51:01;100394.28;;;33.81;40.91
23619;BME280;18207;32.078;34.818;2022-09-21T06:53:34;100405.56;;;33.88;41.48
23619;BME280;18207;32.078;34.818;2022-09-21T06:56:08;100400.16;;;33.94;40.88
23619;BME280;18207;32.078;34.818;2022-09-21T06:58:39;100407.03;;;33.96;40.93
23619;BME280;18207;32.078;34.818;2022-09-21T07:01:11;100403.72;;;34.01;41.08
23619;BME280;18207;32.078;34.818;2022-09-21T07:03:43;100404.00;;;34.06;41.29
23619;BME280;18207;32.078;34.818;2022-09-21T07:06:14;100400.59;;;34.15;41.25
23619;BME280;18207;32.078;34.818;2022-09-21T07:08:45;100403.69;;;34.24;41.21
23619;BME280;18207;32.078;34.818;2022-09-21T07:11:38;100406.75;;;34.33;41.03
23619;BME280;18207;32.078;34.818;2022-09-21T07:14:09;100395.94;;;34.44;41.22
23619;BME280;18207;32.078;34.818;2022-09-21T07:16:40;100394.91;;;34.54;41.22
23619;BME280;18207;32.078;34.818;2022-09-21T07:19:13;100391.53;;;34.62;40.58
23619;BME280;18207;32.078;34.818;2022-09-21T07:21:44;100391.34;;;34.69;40.55
23619;BME280;18207;32.078;34.818;2022-09-21T07:24:14;100403.44;;;34.77;40.60
23619;BME280;18207;32.078;34.818;2022-09-21T07:26:47;100391.94;;;34.80;40.45
23619;BME280;18207;32.078;34.818;2022-09-21T07:29:18;100397.56;;;34.84;40.71
23619;BME280;18207;32.078;34.818;2022-09-21T07:31:49;100395.88;;;34.86;40.43
23619;BME280;18207;32.078;34.818;2022-09-21T07:34:20;100394.19;;;34.89;40.31
23619;BME280;18207;32.078;34.818;2022-09-21T07:36:50;100387.16;;;34.93;40.56
23619;BME280;18207;32.078;34.818;2022-09-21T07:39:21;100394.41;;;34.97;40.39
23619;BME280;18207;32.078;34.818;2022-09-21T07:41:53;100382.53;;;34.99;39.70
23619;BME280;18207;32.078;34.818;2022-09-21T07:44:24;100384.59;;;34.98;39.82
23619;BME280;18207;32.078;34.818;2022-09-21T07:46:55;100393.50;;;35.00;40.30
23619;BME280;18207;32.078;34.818;2022-09-21T07:49:26;100388.16;;;35.02;39.95
23619;BME280;18207;32.078;34.818;2022-09-21T07:51:56;100384.38;;;35.09;40.36
23619;BME280;18207;32.078;34.818;2022-09-21T07:54:34;100391.97;;;35.15;39.52
23619;BME280;18207;32.078;34.818;2022-09-21T07:57:07;100383.22;;;35.22;39.92
23619;BME280;18207;32.078;34.818;2022-09-21T07:59:54;100385.66;;;35.24;40.18
23619;BME280;18207;32.078;34.818;2022-09-21T08:02:26;100374.50;;;35.29;39.51
23619;BME280;18207;32.078;34.818;2022-09-21T08:04:57;100380.13;;;35.33;39.45
23619;BME280;18207;32.078;34.818;2022-09-21T08:07:27;100382.06;;;35.36;39.29
23619;BME280;18207;32.078;34.818;2022-09-21T08:09:59;100376.34;;;35.36;39.77
23619;BME280;18207;32.078;34.818;2022-09-21T08:12:32;100379.56;;;35.38;39.14
23619;BME280;18207;32.078;34.818;2022-09-21T08:15:04;100384.03;;;35.39;39.08
23619;BME280;18207;32.078;34.818;2022-09-21T08:17:55;100381.97;;;35.39;39.07
23619;BME280;18207;32.078;34.818;2022-09-21T08:20:26;100386.03;;;35.42;39.07
23619;BME280;18207;32.078;34.818;2022-09-21T08:22:57;100378.59;;;35.44;38.87
23619;BME280;18207;32.078;34.818;2022-09-21T08:25:28;100371.19;;;35.47;38.86
23619;BME280;18207;32.078;34.818;2022-09-21T08:28:01;100361.72;;;35.50;39.53
23619;BME280;18207;32.078;34.818;2022-09-21T08:30:36;100365.34;;;35.54;39.12
23619;BME280;18207;32.078;34.818;2022-09-21T08:33:07;100374.59;;;35.58;39.03
23619;BME280;18207;32.078;34.818;2022-09-21T08:35:38;100374.97;;;35.60;38.98
23619;BME280;18207;32.078;34.818;2022-09-21T08:38:09;100368.78;;;35.61;38.77
23619;BME280;18207;32.078;34.818;2022-09-21T08:40:40;100364.59;;;35.66;39.27
23619;BME280;18207;32.078;34.818;2022-09-21T08:43:19;100364.06;;;35.71;39.27
23619;BME280;18207;32.078;34.818;2022-09-21T08:45:55;100366.81;;;35.74;38.89
23619;BME280;18207;32.078;34.818;2022-09-21T08:48:31;100373.59;;;35.80;38.70
23619;BME280;18207;32.078;34.818;2022-09-21T08:51:09;100357.16;;;35.84;38.82
23619;BME280;18207;32.078;34.818;2022-09-21T08:53:44;100364.38;;;35.88;38.93
23619;BME280;18207;32.078;34.818;2022-09-21T08:56:16;100360.97;;;35.93;39.08
23619;BME280;18207;32.078;34.818;2022-09-21T08:58:49;100361.72;;;35.97;38.32
23619;BME280;18207;32.078;34.818;2022-09-21T09:01:36;100364.03;;;36.02;38.26
23619;BME280;18207;32.078;34.818;2022-09-21T09:04:28;100367.59;;;36.06;38.41
23619;BME280;18207;32.078;34.818;2022-09-21T09:07:18;100357.28;;;36.09;38.53
23619;BME280;18207;32.078;34.818;2022-09-21T09:10:17;100350.69;;;36.12;38.77
23619;BME280;18207;32.078;34.818;2022-09-21T09:13:03;100352.66;;;36.15;38.28
23619;BME280;18207;32.078;34.818;2022-09-21T09:15:59;100351.72;;;36.18;38.21
23619;BME280;18207;32.078;34.818;2022-09-21T09:18:45;100355.75;;;36.20;38.11
23619;BME280;18207;32.078;34.818;2022-09-21T09:21:24;100348.69;;;36.25;38.38
23619;BME280;18207;32.078;34.818;2022-09-21T09:24:04;100353.47;;;36.28;37.63
23619;BME280;18207;32.078;34.818;2022-09-21T09:26:46;100348.09;;;36.30;38.31
23619;BME280;18207;32.078;34.818;2022-09-21T09:29:26;100353.03;;;36.29;38.19
23619;BME280;18207;32.078;34.818;2022-09-21T09:32:01;100333.00;;;36.29;37.94
23619;BME280;18207;32.078;34.818;2022-09-21T09:34:37;100344.00;;;36.31;38.03
23619;BME280;18207;32.078;34.818;2022-09-21T09:37:12;100342.75;;;36.32;37.79
23619;BME280;18207;32.078;34.818;2022-09-21T09:39:50;100338.97;;;36.35;37.52
23619;BME280;18207;32.078;34.818;2022-09-21T09:42:45;100340.91;;;36.38;37.63
23619;BME280;18207;32.078;34.818;2022-09-21T09:45:48;100337.97;;;36.41;38.08
23619;BME280;18207;32.078;34.818;2022-09-21T09:48:56;100329.72;;;36.43;37.43
23619;BME280;18207;32.078;34.818;2022-09-21T09:51:32;100335.47;;;36.43;37.60
23619;BME280;18207;32.078;34.818;2022-09-21T09:54:12;100332.16;;;36.45;37.42
23619;BME280;18207;32.078;34.818;2022-09-21T09:56:44;100328.47;;;36.44;37.51
23619;BME280;18207;32.078;34.818;2022-09-21T09:59:26;100328.84;;;36.46;37.27
23619;BME280;18207;32.078;34.818;2022-09-21T10:02:02;100344.41;;;36.45;37.41
23619;BME280;18207;32.078;34.818;2022-09-21T10:04:34;100340.66;;;36.48;37.91
23619;BME280;18207;32.078;34.818;2022-09-21T10:07:05;100325.06;;;36.49;37.22
23619;BME280;18207;32.078;34.818;2022-09-21T10:09:47;100319.34;;;36.49;37.23
23619;BME280;18207;32.078;34.818;2022-09-21T10:12:24;100329.97;;;36.49;37.48
23619;BME280;18207;32.078;34.818;2022-09-21T10:14:57;100325.50;;;36.48;37.12
23619;BME280;18207;32.078;34.818;2022-09-21T10:17:29;100319.34;;;36.49;37.74
23619;BME280;18207;32.078;34.818;2022-09-21T10:20:04;100317.63;;;36.52;37.27
23619;BME280;18207;32.078;34.818;2022-09-21T10:22:37;100320.50;;;36.52;37.34
23619;BME280;18207;32.078;34.818;2022-09-21T10:25:15;100323.34;;;36.52;37.13
23619;BME280;18207;32.078;34.818;2022-09-21T10:27:50;100329.09;;;36.52;37.47
23619;BME280;18207;32.078;34.818;2022-09-21T10:30:36;100321.28;;;36.52;37.20
23619;BME280;18207;32.078;34.818;2022-09-21T10:33:19;100319.22;;;36.53;37.04
23619;BME280;18207;32.078;34.818;2022-09-21T10:35:52;100306.16;;;36.52;36.78
23619;BME280;18207;32.078;34.818;2022-09-21T10:38:26;100308.13;;;36.55;37.19
23619;BME280;18207;32.078;34.818;2022-09-21T10:40:58;100308.91;;;36.55;37.13
23619;BME280;18207;32.078;34.818;2022-09-21T10:43:34;100316.59;;;36.58;37.20
23619;BME280;18207;32.078;34.818;2022-09-21T10:46:11;100315.78;;;36.58;37.17
23619;BME280;18207;32.078;34.818;2022-09-21T10:48:45;100309.63;;;36.59;36.88
23619;BME280;18207;32.078;34.818;2022-09-21T10:51:28;100309.97;;;36.61;36.76
23619;BME280;18207;32.078;34.818;2022-09-21T10:54:08;100315.72;;;36.61;36.83
23619;BME280;18207;32.078;34.818;2022-09-21T10:56:53;100311.56;;;36.62;36.98
23619;BME280;18207;32.078;34.818;2022-09-21T10:59:27;100311.66;;;36.59;36.76
23619;BME280;18207;32.078;34.818;2022-09-21T11:02:00;100307.19;;;36.58;37.05
23619;BME280;18207;32.078;34.818;2022-09-21T11:04:42;100319.94;;;36.57;36.90
23619;BME280;18207;32.078;34.818;2022-09-21T11:07:24;100319.22;;;36.53;37.06
23619;BME280;18207;32.078;34.818;2022-09-21T11:10:15;100321.28;;;36.52;36.46
23619;BME280;18207;32.078;34.818;2022-09-21T11:13:18;100310.28;;;36.51;36.35
23619;BME280;18207;32.078;34.818;2022-09-21T11:15:58;100314.75;;;36.52;36.41
23619;BME280;18207;32.078;34.818;2022-09-21T11:18:44;100311.91;;;36.52;36.84
23619;BME280;18207;32.078;34.818;2022-09-21T11:21:25;100313.16;;;36.51;36.68
23619;BME280;18207;32.078;34.818;2022-09-21T11:24:11;100318.09;;;36.50;36.81
23619;BME280;18207;32.078;34.818;2022-09-21T11:26:53;100312.00;;;36.48;36.92
23619;BME280;18207;32.078;34.818;2022-09-21T11:29:32;100303.06;;;36.46;36.37
23619;BME280;18207;32.078;34.818;2022-09-21T11:32:30;100313.38;;;36.44;36.55
23619;BME280;18207;32.078;34.818;2022-09-21T11:35:46;100313.09;;;36.38;36.18
23619;BME280;18207;32.078;34.818;2022-09-21T11:38:44;100318.00;;;36.38;36.46
23619;BME280;18207;32.078;34.818;2022-09-21T11:41:57;100298.88;;;36.35;36.63
23619;BME280;18207;32.078;34.818;2022-09-21T11:44:51;100303.13;;;36.30;36.40
23619;BME280;18207;32.078;34.818;2022-09-21T11:47:59;100305.72;;;36.25;36.75
23619;BME280;18207;32.078;34.818;2022-09-21T11:50:48;100298.88;;;36.22;36.14
23619;BME280;18207;32.078;34.818;2022-09-21T11:53:34;100288.66;;;36.21;36.40
23619;BME280;18207;32.078;34.818;2022-09-21T11:56:26;100297.25;;;36.21;36.73
23619;BME280;18207;32.078;34.818;2022-09-21T11:59:16;100302.97;;;36.21;36.23
23619;BME280;18207;32.078;34.818;2022-09-21T12:02:18;100293.22;;;36.19;36.12
23619;BME280;18207;32.078;34.818;2022-09-21T12:05:05;100298.94;;;36.19;36.10
23619;BME280;18207;32.078;34.818;2022-09-21T12:08:09;100293.69;;;36.17;36.24
23619;BME280;18207;32.078;34.818;2022-09-21T12:10:53;100302.72;;;36.16;36.40
23619;BME280;18207;32.078;34.818;2022-09-21T12:13:34;100286.81;;;36.15;36.05
23619;BME280;18207;32.078;34.818;2022-09-21T12:16:19;100295.84;;;36.13;36.49
23619;BME280;18207;32.078;34.818;2022-09-21T12:19:04;100291.03;;;36.10;36.22
23619;BME280;18207;32.078;34.818;2022-09-21T12:21:41;100292.72;;;36.08;36.20
23619;BME280;18207;32.078;34.818;2022-09-21T12:24:18;100293.66;;;36.05;36.14
23619;BME280;18207;32.078;34.818;2022-09-21T12:26:56;100292.50;;;36.02;36.11
23619;BME280;18207;32.078;34.818;2022-09-21T12:29:34;100284.34;;;36.01;36.25
23619;BME280;18207;32.078;34.818;2022-09-21T12:32:23;100281.94;;;35.99;36.41
23619;BME280;18207;32.078;34.818;2022-09-21T12:34:59;100290.19;;;35.97;36.78
23619;BME280;18207;32.078;34.818;2022-09-21T12:37:41;100288.53;;;35.96;36.03
23619;BME280;18207;32.078;34.818;2022-09-21T12:40:19;100292.28;;;35.93;36.20
23619;BME280;18207;32.078;34.818;2022-09-21T12:43:02;100283.38;;;35.91;36.02
23619;BME280;18207;32.078;34.818;2022-09-21T12:45:41;100287.94;;;35.89;36.33
23619;BME280;18207;32.078;34.818;2022-09-21T12:48:28;100289.63;;;35.86;36.16
23619;BME280;18207;32.078;34.818;2022-09-21T12:51:11;100293.38;;;35.83;36.68
23619;BME280;18207;32.078;34.818;2022-09-21T12:53:46;100291.88;;;35.79;36.12
23619;BME280;18207;32.078;34.818;2022-09-21T12:56:37;100288.69;;;35.77;36.34
23619;BME280;18207;32.078;34.818;2022-09-21T12:59:28;100299.41;;;35.73;36.73
23619;BME280;18207;32.078;34.818;2022-09-21T13:02:14;100290.94;;;35.70;36.60
23619;BME280;18207;32.078;34.818;2022-09-21T13:05:06;100281.31;;;35.64;36.37
23619;BME280;18207;32.078;34.818;2022-09-21T13:08:04;100300.25;;;35.58;36.25
23619;BME280;18207;32.078;34.818;2022-09-21T13:10:45;100285.25;;;35.54;35.91
23619;BME280;18207;32.078;34.818;2022-09-21T13:13:31;100290.22;;;35.50;35.93
23619;BME280;18207;32.078;34.818;2022-09-21T13:16:04;100296.84;;;35.47;35.78
23619;BME280;18207;32.078;34.818;2022-09-21T13:18:38;100298.53;;;35.44;35.96
23619;BME280;18207;32.078;34.818;2022-09-21T13:21:28;100298.63;;;35.41;35.96
23619;BME280;18207;32.078;34.818;2022-09-21T13:24:01;100301.69;;;35.34;35.94
23619;BME280;18207;32.078;34.818;2022-09-21T13:26:39;100311.59;;;35.29;35.98
23619;BME280;18207;32.078;34.818;2022-09-21T13:29:35;100306.41;;;35.24;36.53
23619;BME280;18207;32.078;34.818;2022-09-21T13:32:23;100311.06;;;35.18;36.74
23619;BME280;18207;32.078;34.818;2022-09-21T13:38:57;100302.31;;;35.09;36.34
23619;BME280;18207;32.078;34.818;2022-09-21T13:41:33;100307.66;;;35.07;36.33
23619;BME280;18207;32.078;34.818;2022-09-21T13:44:42;100303.19;;;35.06;36.92